Pagina principale
METAR-TAF:

METAR-TAF

Aeroporti :

Woensdrecht, Paesi Bassi

latitudine: 51-27N, longitudine: 004-20E, altezza: 20 m

Osservazione

Il bollettino è stato emesso 25 minuti fa, alle 02:55 UTC
Vento 5 kt da sud-ovest, variando fra ovest/sud-ovest e ovest/nord-ovest
Temperature 6°C
Umidità 75%
Pressione 1023 hPa
Visibilità 10 km o più
Cielo coperto ad un'altezza di 7600 ft

METAR: EHWO 240255Z AUTO 22005KT 240V300 9999 OVC076 06/02 Q1023 BLU

Ora: 04:20 (03:20 UTC)


TAF: mancante

Osservazioni e previsioni meteorologiche di più di 4000 aeroporti (messaggi METAR e TAF).

Le stazioni disponibili sono rappresentate dai dischi gialli e rossi sulla carta.

Puntare il mouse per vedere il nome della stazione.

Clicca sopra per visualizzare le osservazioni e previsioni meteorologiche.

Per cambiare la mappa : fare clic sui pulsanti verdi con una croce nera per ingrandire, il pulsante verde con un trattino per diminuire, o sulla freccia verde per le mappe adiacenti.


METAR-TAF: